Terminal Aerodrome Forecast
Issued by NWS Twin Cities, MN

Home | Current Version | Previous Version | Text Only | Print | Product List | Glossary Off
Versions: 1 2 3 4 5 6 7 8 9 10 11 12 13 14 15 16 17

000
FTUS43 KMPX 291720
TAFEAU
TAF
KEAU 291720Z 2918/3018 11007KT P6SM OVC150
     FM300000 11006KT P6SM SCT030 OVC050
     FM300800 07010KT 6SM -RASN BR BKN015 OVC025
     FM301500 07012KT P6SM -RA OVC015=

USA.gov is the U.S. government's official web portal to all federal, state and local government web resources and services.